x

Ilm2 - 5 Miles Se Of Wrightsville Beach, Nc (41038) Weather Station

5:08 - Mon 24th Jul 2017 All times are EDT. -4 hours from GMT.

  • Wind
    18mph, 25mph gusts
  • Sea Temp 80°f
  • Aire Temp 81°f
  • Sea Pressure 1012.2mb
  • Ilm2 - 5 Miles Se Of Wrightsville Beach, Nc
  • Ilm2 - 5 Miles Se Of Wrightsville Beach, Nc

More Historic Weather Station data

Upgrade to MSW Pro to gain access to the past 30 days of data for over 8000 Wavebouys and Weather Stations around the globe.

Join Pro

Comparision Forecast

View Surf forecast
   
lun 07/24 5:08 18 25 mph 1012.2mb 80f 81f
4:08 18 27 mph 1012.2mb 80f 81f
3:08 16 27 mph 1011.5mb 80f 81f
2:08 16 27 mph 1011.9mb 80f 81f
1:08 22 31 mph 1011.9mb 80f 81f
12:08 16 22 mph 1012.8mb 80f 81f
dom 07/23 11:08 13 25 mph 1012.7mb 80f 81f
10:08 13 25 mph 1013.1mb 80f 81f
9:08 16 25 mph 1012.5mb 80f 81f
8:08 18 27 mph 1012.3mb 80f 82f
7:08 16 27 mph 1011.8mb 80f 82f
6:08 16 22 mph 1010.9mb 80f 82f
5:08 16 25 mph 1011.7mb 80f 82f
4:08 13 25 mph 1012.1mb 80f 82f
3:08 13 27 mph 1012.6mb 80f 82f
2:08 11 20 mph 1012.7mb 80f 81f
1:08 11 18 mph 1012.9mb 79f 81f
12:08 11 22 mph 1013mb 79f 81f
11:08 9 16 mph 1013.5mb 79f 81f
10:08 11 20 mph 1013.7mb 79f 81f
9:08 13 20 mph 1013.8mb 79f 81f
8:08 13 18 mph 1013.6mb 79f 81f
7:08 13 20 mph 1013.3mb 79f 81f
6:08 13 20 mph 1013.3mb 78f 80f
5:08 16 20 mph 1012.9mb 78f 80f
4:08 11 18 mph 1012.7mb 78f 80f
3:08 13 22 mph 1012.8mb 78f 80f
2:08 11 18 mph 1013.2mb 78f 80f
1:08 11 20 mph 1013.7mb 78f 80f
12:08 9 18 mph 1013.6mb 79f 80f
sáb 07/22 11:08 11 18 mph 1013.9mb 79f 81f
10:08 9 18 mph 1014.2mb 79f 81f
9:08 11 18 mph 1013.9mb 79f 81f
8:08 11 18 mph 1013.8mb 79f 81f
7:08 11 18 mph 1013.4mb 80f 81f
6:08 9 16 mph 1013.1mb 80f 81f
5:08 11 20 mph 1013.6mb 80f 81f
4:08 11 18 mph 1014mb 79f 81f
3:08 13 20 mph 1015mb 79f 81f
2:08 11 16 mph 1015.8mb 80f 81f
1:08 11 18 mph 1016.3mb 80f 81f
12:08 9 18 mph 1016.8mb 80f 82f
11:08 11 16 mph 1017.3mb 80f 81f
10:08 11 16 mph 1017mb 80f 80f
9:08 9 11 mph 1016.8mb 80f 80f
8:08 9 11 mph 1016.5mb 80f 80f
7:08 7 11 mph 1015.8mb 80f 80f
6:08 9 13 mph 1015.5mb 80f 80f
5:08 11 16 mph 1015.3mb 80f 80f
4:08 11 16 mph 1015.4mb 80f 80f
3:08 9 13 mph 1015.4mb 80f 80f
2:08 9 13 mph 1015.8mb 80f 80f
1:08 9 13 mph 1016.1mb 80f 81f
12:08 9 16 mph 1016.3mb 81f 81f
vie 07/21 11:08 11 20 mph 1016.5mb 81f 81f
10:08 11 18 mph 1016.4mb 81f 81f
9:08 9 16 mph 1015.9mb 81f 81f
8:08 9 18 mph 1015.7mb 82f 82f
7:08 11 18 mph 1015.5mb 82f 82f
6:08 11 18 mph 1015.2mb 82f 82f
5:08 13 20 mph 1015.3mb 82f 82f
4:08 13 20 mph 1015.4mb 82f 82f
3:08 13 20 mph 1016.1mb 82f 82f
2:08 13 20 mph 1016.6mb 82f 82f
1:08 11 16 mph 1017mb 82f 82f
12:08 9 16 mph 1017.3mb 82f 82f
11:08 9 11 mph 1017.4mb 82f 82f
10:08 7 9 mph 1017.2mb 81f 81f
9:08 9 11 mph 1017.1mb 81f 80f
8:08 9 13 mph 1016.8mb 81f 80f
7:08 11 13 mph 1016.2mb 81f 80f
6:08 11 13 mph 1015.5mb 81f 79f
5:08 9 13 mph 1015.3mb 81f 80f
4:08 7 11 mph 1015.3mb 81f 80f
3:08 7 11 mph 1015.7mb 81f 81f
2:08 9 13 mph 1016.2mb 80f 81f
1:08 9 16 mph 1016.8mb 80f 81f
jue 07/20 11:08 11 18 mph 1017mb 81f 81f
10:08 9 16 mph 1016.7mb 81f 82f
9:08 11 18 mph 1016.1mb 82f 82f
8:08 9 16 mph 1015.6mb 81f 82f
7:08 9 13 mph 1015.4mb 82f 82f
6:08 9 16 mph 1015.3mb 82f 82f
5:08 9 13 mph 1016mb 83f 82f
4:08 11 18 mph 1017mb 83f 82f
3:08 11 16 mph 1017.5mb 83f 82f
2:08 9 11 mph 1018mb 83f 82f
1:08 7 11 mph 1018.5mb 82f 82f
12:08 2 4 mph 1018.8mb 81f 82f
11:08  -  2 mph 1018.6mb 81f 83f